createdAt,value
2022-08-23T02:31:53.161Z,22.70
2022-08-23T02:34:20.677Z,20.70
2022-08-23T02:36:47.979Z,20.50
2022-08-23T02:39:16.540Z,20.50
2022-08-23T02:41:44.060Z,20.50
2022-08-23T02:44:11.543Z,20.50
2022-08-23T02:46:38.894Z,20.40
2022-08-23T02:49:06.410Z,20.50
2022-08-23T02:51:34.871Z,20.40
2022-08-23T02:54:01.736Z,20.40
2022-08-23T02:56:28.716Z,20.40
2022-08-23T02:58:55.530Z,20.40
2022-08-23T03:01:31.894Z,20.30
2022-08-23T03:04:00.194Z,20.30
2022-08-23T03:06:27.644Z,20.30
2022-08-23T03:08:56.529Z,20.20
2022-08-23T03:11:24.982Z,20.30
2022-08-23T03:13:56.372Z,20.30
2022-08-23T07:14:10.443Z,20.10
2022-08-23T07:16:40.664Z,21.50
2022-08-23T07:19:09.320Z,21.50
2022-08-23T07:21:37.506Z,21.50
2022-08-23T07:24:04.700Z,21.60
2022-08-23T07:26:32.161Z,21.70
2022-08-23T07:28:58.976Z,21.70
2022-08-23T07:31:32.676Z,21.70
2022-08-23T07:34:01.895Z,21.80
2022-08-23T07:36:31.662Z,21.80
2022-08-23T07:38:58.961Z,21.90
2022-08-23T07:41:32.743Z,22.00
2022-08-23T07:44:02.769Z,22.00
2022-08-23T07:46:31.373Z,22.00
2022-08-23T07:48:59.917Z,22.20
2022-08-23T07:51:29.199Z,22.30
2022-08-23T07:53:56.387Z,22.30
2022-08-23T07:56:23.562Z,22.20
2022-08-23T07:58:50.620Z,22.30
2022-08-23T08:01:22.208Z,22.40
2022-08-23T08:03:53.168Z,22.50
2022-08-23T08:06:32.589Z,22.60
2022-08-23T08:09:00.468Z,22.70
2022-08-23T08:11:34.490Z,22.80
2022-08-23T08:14:06.163Z,22.80
2022-08-23T08:16:36.470Z,22.90
2022-08-23T08:31:27.412Z,23.10
2022-08-23T08:33:54.666Z,23.20
2022-08-23T08:36:49.075Z,23.10
2022-08-23T08:39:20.088Z,23.30
2022-08-23T08:42:24.893Z,23.50
2022-08-23T08:44:53.912Z,23.50
2022-08-23T08:47:39.510Z,23.60
2022-08-23T08:50:06.545Z,23.60
2022-08-23T08:52:38.717Z,23.60
2022-08-23T08:55:20.071Z,23.70
2022-08-23T08:57:50.978Z,23.90
2022-08-23T09:00:22.429Z,23.80
2022-08-23T09:02:50.523Z,23.80
2022-08-23T09:05:27.332Z,24.00
2022-08-23T09:08:14.342Z,24.20
2022-08-23T09:11:01.793Z,24.20
2022-08-23T09:13:53.647Z,24.30
2022-08-23T09:16:45.788Z,24.60
2022-08-23T09:19:12.707Z,24.60
2022-08-23T09:21:48.822Z,24.80
2022-08-23T09:24:16.610Z,24.90
2022-08-23T09:26:43.937Z,24.90
2022-08-23T09:29:23.734Z,24.70
2022-08-23T09:31:52.948Z,24.80
2022-08-23T09:34:37.805Z,25.00
2022-08-23T09:37:13.462Z,25.00
2022-08-23T09:39:44.577Z,25.40
2022-08-23T09:42:27.230Z,25.40
2022-08-23T09:44:54.788Z,25.30
2022-08-23T09:47:30.239Z,25.30
2022-08-23T09:50:06.943Z,25.30
2022-08-23T09:52:38.024Z,25.40
2022-08-23T09:55:09.708Z,25.40
2022-08-23T09:57:37.197Z,25.50
2022-08-23T10:00:16.727Z,25.60
2022-08-23T10:02:44.548Z,25.70
2022-08-23T10:05:40.698Z,26.10
2022-08-23T10:08:10.536Z,25.70
2022-08-23T10:10:48.052Z,26.00
2022-08-23T10:13:18.316Z,25.90
2022-08-23T10:16:11.970Z,26.30
2022-08-23T10:19:07.723Z,26.50
2022-08-23T10:21:49.820Z,26.40
2022-08-23T10:24:28.461Z,26.30
2022-08-23T10:28:06.055Z,26.40
2022-08-23T10:31:00.034Z,26.50
2022-08-23T10:33:35.376Z,27.30
2022-08-23T10:36:21.515Z,27.30
2022-08-23T10:39:06.287Z,28.00
2022-08-23T10:41:57.424Z,28.10
2022-08-23T10:49:28.571Z,28.20
2022-08-23T10:51:57.573Z,28.60
2022-08-23T10:54:45.880Z,28.60
2022-08-23T19:18:45.009Z,29.20
2022-08-23T19:21:14.338Z,27.00
2022-08-23T19:23:42.174Z,26.80
2022-08-23T19:26:10.582Z,26.60
2022-08-23T19:28:38.129Z,26.50
2022-08-23T19:31:05.420Z,26.50
2022-08-23T19:33:32.581Z,26.50
2022-08-23T19:35:59.723Z,26.60
2022-08-23T19:38:27.859Z,26.70
2022-08-23T19:40:57.956Z,26.50
2022-08-23T19:43:25.723Z,26.50
2022-08-23T19:45:53.339Z,26.30
2022-08-23T19:48:23.603Z,26.40
2022-08-23T19:50:50.888Z,26.40
2022-08-23T19:53:17.828Z,26.30
2022-08-23T19:55:45.117Z,26.30
2022-08-23T19:58:14.169Z,26.20
2022-08-23T20:00:43.129Z,26.10
2022-08-23T20:03:11.988Z,26.00
2022-08-23T20:05:39.295Z,26.00
2022-08-23T20:08:06.145Z,26.00
2022-08-23T20:10:33.105Z,26.10
2022-08-23T20:13:01.010Z,26.10
2022-08-23T20:15:29.182Z,26.00
2022-08-23T20:17:56.457Z,25.80
2022-08-23T20:20:23.565Z,25.80
2022-08-23T20:23:09.179Z,25.80
2022-08-23T20:25:36.880Z,25.80
2022-08-23T20:28:08.128Z,25.70
2022-08-23T20:30:37.697Z,25.70
2022-08-23T20:33:05.039Z,25.70
2022-08-23T20:35:31.989Z,25.70
2022-08-23T20:37:58.958Z,25.60
2022-08-23T20:40:26.102Z,25.60
2022-08-23T20:42:53.074Z,25.50
2022-08-23T20:45:20.206Z,25.40
2022-08-23T20:47:47.132Z,25.50
2022-08-23T20:50:14.188Z,25.40
2022-08-23T20:52:41.129Z,25.40
2022-08-23T20:55:10.953Z,25.30
2022-08-23T20:57:38.819Z,25.40
